Valley Spring, Texas
Current Conditions -  °F | °C
As of 3:15 PM on Thursday 23 Oct 2014 (Local Time) from KDZB Reporting Station
Overcast Overcast  
Wind Chill: 80°   Ceiling: 4200
Heat Index: 81°   Visibility: 10mi
Dew Point: 60°   Wind: 0mph
Humidity: 50%   Direction: NA
Pressure: 30.09"   Gusts: NA
Location:  30.86°N, 98.82°W
Report Text: KDZB 232015Z AUTO 00000KT 10SM BKN042 OVC100 27/15 A3009 RMK AO2 T02650153
Loading
Personal Weather Stations






























Interactive Weather Map
Tropical Storm Tracking
New forecast layout! Learn more

10-Day Weather Forecast

Advertisements
Track Severe Weather on mobile